createdAt,value
2023-05-21T00:02:20.045Z,98287.73
2023-05-21T00:05:27.504Z,98286.98
2023-05-21T00:08:47.643Z,98282.29
2023-05-21T00:11:55.444Z,98281.23
2023-05-21T00:15:07.081Z,98281.98
2023-05-21T00:18:19.088Z,98278.61
2023-05-21T00:21:47.280Z,98278.05
2023-05-21T00:25:14.194Z,98277.00
2023-05-21T00:28:21.505Z,98275.72
2023-05-21T00:31:30.230Z,98270.70
2023-05-21T00:34:37.283Z,98267.39
2023-05-21T00:37:44.484Z,98265.34
2023-05-21T00:40:51.691Z,98263.86
2023-05-21T00:43:59.053Z,98263.38
2023-05-21T00:47:08.182Z,98269.30
2023-05-21T00:50:15.295Z,98274.29
2023-05-21T00:53:15.003Z,98271.60
2023-05-21T00:56:22.299Z,98273.25
2023-05-21T00:59:29.669Z,98270.23
2023-05-21T01:02:37.024Z,98269.70
2023-05-21T01:05:44.703Z,98265.92
2023-05-21T01:08:57.696Z,98265.27
2023-05-21T01:12:04.922Z,98265.51
2023-05-21T01:15:11.924Z,98260.64
2023-05-21T01:18:19.471Z,98258.41
2023-05-21T01:21:26.426Z,98260.95
2023-05-21T01:24:33.441Z,98260.11
2023-05-21T01:27:42.659Z,98257.87
2023-05-21T01:30:49.974Z,98255.22
2023-05-21T01:33:56.915Z,98250.70
2023-05-21T01:37:03.849Z,98251.50
2023-05-21T01:40:11.926Z,98250.13
2023-05-21T01:43:26.969Z,98246.72
2023-05-21T01:46:43.102Z,98245.84
2023-05-21T01:49:50.280Z,98243.15
2023-05-21T01:56:22.730Z,98238.39
2023-05-21T01:59:34.127Z,98237.33
2023-05-21T02:02:45.066Z,98236.76
2023-05-21T02:06:10.869Z,98235.16
2023-05-21T02:09:37.697Z,98235.35
2023-05-21T02:12:44.668Z,98229.80
2023-05-21T02:15:51.644Z,98221.54
2023-05-21T02:18:58.857Z,98221.65
2023-05-21T02:22:08.375Z,98219.25
2023-05-21T02:25:15.549Z,98216.33
2023-05-21T02:28:23.968Z,98220.29
2023-05-21T02:31:31.103Z,98224.68
2023-05-21T02:34:46.070Z,98220.63
2023-05-21T02:38:02.174Z,98215.84
2023-05-21T02:41:33.166Z,98210.36
2023-05-21T02:44:41.718Z,98203.42
2023-05-21T02:47:50.438Z,98201.88
2023-05-21T02:50:57.575Z,98195.91
2023-05-21T02:54:09.286Z,98195.36
2023-05-21T02:57:16.345Z,98189.73
2023-05-21T03:00:23.486Z,98191.07
2023-05-21T03:03:31.668Z,98191.40
2023-05-21T03:06:39.748Z,98194.02
2023-05-21T03:09:46.823Z,98192.01
2023-05-21T03:12:54.709Z,98191.23
2023-05-21T03:16:02.039Z,98192.76
2023-05-21T03:19:09.030Z,98189.15
2023-05-21T03:22:16.202Z,98194.60
2023-05-21T03:25:24.424Z,98190.91
2023-05-21T03:28:40.185Z,98182.15
2023-05-21T03:31:47.254Z,98183.48
2023-05-21T03:34:54.633Z,98185.02
2023-05-21T03:38:01.530Z,98188.54
2023-05-21T03:41:10.567Z,98186.05
2023-05-21T03:44:17.533Z,98186.33
2023-05-21T03:47:37.520Z,98186.06
2023-05-21T03:51:04.106Z,98182.43
2023-05-21T03:54:31.884Z,98184.05
2023-05-21T03:57:39.451Z,98185.04
2023-05-21T04:00:47.395Z,98185.94
2023-05-21T04:03:50.008Z,98185.00
2023-05-21T04:07:01.520Z,98185.91
2023-05-21T04:10:08.421Z,98185.39
2023-05-21T04:13:15.752Z,98183.14
2023-05-21T04:16:22.824Z,98185.52
2023-05-21T04:19:30.031Z,98190.71
2023-05-21T04:22:46.114Z,98192.92
2023-05-21T04:25:53.217Z,98190.34
2023-05-21T04:29:01.931Z,98194.73
2023-05-21T04:32:08.455Z,98195.71
2023-05-21T04:35:15.420Z,98197.33
2023-05-21T04:38:42.717Z,98197.55
2023-05-21T04:41:50.191Z,98198.76
2023-05-21T04:44:57.105Z,98201.85
2023-05-21T04:48:12.093Z,98200.64
2023-05-21T04:51:39.139Z,98200.73
2023-05-21T04:54:46.928Z,98197.59
2023-05-21T04:57:54.163Z,98194.29
2023-05-21T05:01:05.158Z,98191.21
2023-05-21T05:04:16.670Z,98190.21
2023-05-21T05:07:23.453Z,98190.64
2023-05-21T05:10:31.376Z,98189.42
2023-05-21T05:13:38.509Z,98185.71
2023-05-21T05:16:45.613Z,98186.25
2023-05-21T05:19:53.078Z,98188.70
2023-05-21T05:23:05.730Z,98190.15
2023-05-21T05:26:12.241Z,98191.73
2023-05-21T05:29:19.937Z,98194.39
2023-05-21T05:32:26.870Z,98193.95
2023-05-21T05:35:53.572Z,98188.91
2023-05-21T05:39:01.049Z,98187.10
2023-05-21T05:42:08.312Z,98186.70
2023-05-21T05:45:19.350Z,98188.38
2023-05-21T05:48:26.307Z,98188.04
2023-05-21T05:51:33.380Z,98191.23
2023-05-21T05:54:40.606Z,98191.92
2023-05-21T05:57:48.285Z,98190.92
2023-05-21T06:00:56.173Z,98195.98
2023-05-21T06:04:03.110Z,98192.17
2023-05-21T06:07:10.212Z,98194.26
2023-05-21T06:10:17.273Z,98190.67
2023-05-21T06:13:24.245Z,98192.44
2023-05-21T06:16:31.295Z,98193.80
2023-05-21T06:19:38.391Z,98193.79
2023-05-21T06:22:45.416Z,98193.92
2023-05-21T06:25:52.374Z,98194.27
2023-05-21T06:28:51.984Z,98191.27
2023-05-21T06:32:18.973Z,98188.55
2023-05-21T06:35:26.120Z,98185.00
2023-05-21T06:38:33.030Z,98181.23
2023-05-21T06:42:04.451Z,98175.31
2023-05-21T06:45:19.971Z,98175.14
2023-05-21T06:48:38.743Z,98173.64
2023-05-21T06:51:46.744Z,98173.34
2023-05-21T06:54:55.262Z,98169.52
2023-05-21T06:58:05.176Z,98167.48
2023-05-21T07:01:12.924Z,98159.89
2023-05-21T07:04:19.886Z,98160.86
2023-05-21T07:07:27.829Z,98159.52
2023-05-21T07:10:35.619Z,98157.39
2023-05-21T07:13:42.224Z,98154.34
2023-05-21T07:16:49.241Z,98155.46
2023-05-21T07:19:56.242Z,98152.68
2023-05-21T07:23:03.240Z,98155.90
2023-05-21T07:26:09.055Z,98153.63
2023-05-21T07:29:16.268Z,98153.34
2023-05-21T07:32:23.380Z,98150.88
2023-05-21T07:35:32.694Z,98150.95
2023-05-21T07:38:39.999Z,98148.84
2023-05-21T07:41:51.153Z,98147.69
2023-05-21T07:45:20.626Z,98145.77
2023-05-21T07:48:27.588Z,98149.77
2023-05-21T07:51:34.958Z,98142.52
2023-05-21T07:54:42.750Z,98139.70
2023-05-21T07:57:42.715Z,98143.20
2023-05-21T08:00:49.815Z,98141.64
2023-05-21T08:03:57.226Z,98139.42
2023-05-21T08:07:04.557Z,98138.14
2023-05-21T08:10:12.673Z,98137.73
2023-05-21T08:13:32.096Z,98137.13
2023-05-21T08:16:39.075Z,98137.63
2023-05-21T08:19:46.144Z,98141.59
2023-05-21T08:22:53.261Z,98137.79
2023-05-21T08:26:00.318Z,98134.05
2023-05-21T08:29:07.363Z,98132.04
2023-05-21T08:32:14.470Z,98132.25
2023-05-21T08:35:21.716Z,98132.66
2023-05-21T08:38:37.803Z,98133.47
2023-05-21T08:42:05.279Z,98133.33
2023-05-21T08:45:12.104Z,98135.65
2023-05-21T08:48:18.795Z,98134.25
2023-05-21T08:51:45.777Z,98135.63
2023-05-21T08:55:03.643Z,98135.94
2023-05-21T08:58:30.672Z,98136.76
2023-05-21T09:01:38.803Z,98129.50
2023-05-21T09:04:45.785Z,98127.92
2023-05-21T09:07:52.880Z,98123.77
2023-05-21T09:11:08.948Z,98130.98
2023-05-21T09:14:15.862Z,98126.95
2023-05-21T09:17:28.026Z,98123.52
2023-05-21T09:20:49.916Z,98122.17
2023-05-21T09:23:47.243Z,98122.77
2023-05-21T09:26:52.248Z,98126.64
2023-05-21T09:30:08.006Z,98123.67
2023-05-21T09:33:17.800Z,98122.05
2023-05-21T09:36:25.226Z,98122.96
2023-05-21T09:39:32.173Z,98125.23
2023-05-21T09:42:39.519Z,98131.67
2023-05-21T09:45:46.945Z,98130.48
2023-05-21T09:48:56.878Z,98125.93
2023-05-21T09:52:03.951Z,98126.38
2023-05-21T09:55:11.717Z,98125.98
2023-05-21T09:58:21.043Z,98122.45
2023-05-21T10:01:32.119Z,98120.73
2023-05-21T10:04:57.592Z,98120.00
2023-05-21T10:08:04.604Z,98118.55
2023-05-21T10:11:20.875Z,98116.92
2023-05-21T10:14:28.150Z,98109.05
2023-05-21T10:17:35.335Z,98111.98
2023-05-21T10:20:42.267Z,98106.42
2023-05-21T10:23:49.101Z,98101.77
2023-05-21T10:26:56.453Z,98102.20
2023-05-21T10:30:03.435Z,98103.33
2023-05-21T10:33:10.869Z,98100.81
2023-05-21T10:36:18.036Z,98097.91
2023-05-21T10:39:27.167Z,98099.30
2023-05-21T10:42:49.299Z,98100.95
2023-05-21T10:45:56.580Z,98099.85
2023-05-21T10:49:04.074Z,98100.86
2023-05-21T10:52:14.499Z,98101.69
2023-05-21T10:55:21.812Z,98101.98
2023-05-21T10:58:30.984Z,98101.89
2023-05-21T11:01:58.648Z,98108.70
2023-05-21T11:05:08.524Z,98102.65
2023-05-21T11:08:18.174Z,98099.89
2023-05-21T11:11:25.264Z,98099.95
2023-05-21T11:14:30.503Z,98098.13
2023-05-21T11:17:37.509Z,98094.35
2023-05-21T11:20:44.574Z,98093.08
2023-05-21T11:23:50.079Z,98091.68
2023-05-21T11:27:09.512Z,98091.96
2023-05-21T11:30:16.440Z,98096.89
2023-05-21T11:33:29.417Z,98089.44
2023-05-21T11:36:37.485Z,98089.61
2023-05-21T11:39:44.604Z,98086.95
2023-05-21T11:42:54.505Z,98085.23
2023-05-21T11:46:01.568Z,98082.54
2023-05-21T11:49:09.001Z,98082.59
2023-05-21T11:52:16.069Z,98078.79
2023-05-21T11:55:23.251Z,98078.89
2023-05-21T11:58:30.433Z,98077.36
2023-05-21T12:01:43.339Z,98081.47
2023-05-21T12:04:53.437Z,98079.73
2023-05-21T12:08:00.512Z,98083.42
2023-05-21T12:11:07.656Z,98083.03
2023-05-21T12:13:59.870Z,98086.73
2023-05-21T12:17:06.576Z,98083.77
2023-05-21T12:20:13.525Z,98081.94
2023-05-21T12:23:20.645Z,98080.62
2023-05-21T12:26:27.682Z,98083.14
2023-05-21T12:29:34.711Z,98078.43
2023-05-21T12:32:41.765Z,98083.50
2023-05-21T12:35:48.872Z,98077.08
2023-05-21T12:38:55.871Z,98079.89
2023-05-21T12:42:02.870Z,98076.58
2023-05-21T12:45:09.859Z,98075.41
2023-05-21T12:48:17.167Z,98076.45
2023-05-21T12:51:23.958Z,98072.91
2023-05-21T12:54:33.898Z,98072.77
2023-05-21T12:57:40.876Z,98069.14
2023-05-21T13:00:47.926Z,98064.77
2023-05-21T13:03:54.998Z,98067.00
2023-05-21T13:07:04.223Z,98069.29
2023-05-21T13:10:11.892Z,98066.16
2023-05-21T13:13:18.793Z,98064.45
2023-05-21T13:16:26.109Z,98064.19
2023-05-21T13:19:33.364Z,98062.64
2023-05-21T13:22:40.068Z,98066.46
2023-05-21T13:25:47.236Z,98064.96
2023-05-21T13:28:54.180Z,98061.90
2023-05-21T13:32:01.538Z,98061.11
2023-05-21T13:35:08.446Z,98062.48
2023-05-21T13:38:15.292Z,98063.07
2023-05-21T13:41:21.833Z,98057.64
2023-05-21T13:44:28.700Z,98056.00
2023-05-21T13:47:37.490Z,98059.28
2023-05-21T13:50:46.239Z,98055.05
2023-05-21T13:53:54.973Z,98052.14
2023-05-21T13:57:03.655Z,98053.38
2023-05-21T14:00:10.874Z,98047.70
2023-05-21T14:03:17.899Z,98045.99
2023-05-21T14:06:24.948Z,98045.91
2023-05-21T14:09:31.944Z,98042.84
2023-05-21T14:12:38.885Z,98041.41
2023-05-21T14:15:45.488Z,98040.02
2023-05-21T14:22:02.515Z,98037.08
2023-05-21T14:25:09.542Z,98043.05
2023-05-21T14:28:16.522Z,98039.80
2023-05-21T14:31:23.589Z,98036.77
2023-05-21T14:34:30.307Z,98034.20
2023-05-21T14:37:37.192Z,98034.98
2023-05-21T14:40:48.485Z,98033.86
2023-05-21T14:43:57.160Z,98040.59
2023-05-21T14:47:04.035Z,98038.42
2023-05-21T14:50:10.730Z,98040.60
2023-05-21T14:53:15.828Z,98037.46
2023-05-21T14:56:23.693Z,98035.95
2023-05-21T14:59:30.614Z,98034.65
2023-05-21T15:02:37.551Z,98032.33
2023-05-21T15:05:44.572Z,98036.42
2023-05-21T15:08:51.664Z,98034.19
2023-05-21T15:11:58.640Z,98028.17
2023-05-21T15:15:05.548Z,98033.77
2023-05-21T15:18:12.571Z,98031.84
2023-05-21T15:21:19.529Z,98026.83
2023-05-21T15:24:26.694Z,98029.55
2023-05-21T15:27:33.687Z,98029.67
2023-05-21T15:30:40.764Z,98032.47
2023-05-21T15:33:47.591Z,98034.54
2023-05-21T15:36:54.442Z,98035.20
2023-05-21T15:40:01.662Z,98032.80
2023-05-21T15:42:54.484Z,98030.37
2023-05-21T15:46:01.374Z,98027.84
2023-05-21T15:49:08.256Z,98031.16
2023-05-21T15:52:15.684Z,98029.98
2023-05-21T15:55:22.433Z,98028.35
2023-05-21T15:58:29.533Z,98029.77
2023-05-21T16:01:35.256Z,98021.46
2023-05-21T16:26:31.645Z,98025.68
2023-05-21T16:29:40.749Z,98027.66
2023-05-21T16:32:48.137Z,98023.38
2023-05-21T16:35:55.313Z,98021.06
2023-05-21T16:39:02.272Z,98023.58
2023-05-21T16:42:09.467Z,98021.61
2023-05-21T16:45:16.514Z,98020.61
2023-05-21T16:48:31.699Z,98024.99
2023-05-21T16:51:38.627Z,98021.77
2023-05-21T16:54:35.411Z,98019.66
2023-05-21T16:57:42.362Z,98023.27
2023-05-21T17:00:49.404Z,98024.80
2023-05-21T17:03:56.890Z,98022.69
2023-05-21T17:07:11.866Z,98023.34
2023-05-21T17:10:18.855Z,98021.88
2023-05-21T17:13:22.322Z,98031.69
2023-05-21T17:16:30.242Z,98028.11
2023-05-21T17:19:37.660Z,98026.50
2023-05-21T17:23:04.583Z,98024.17
2023-05-21T17:26:31.754Z,98029.41
2023-05-21T17:29:42.950Z,98031.19
2023-05-21T17:32:56.060Z,98026.54
2023-05-21T17:36:30.622Z,98029.96
2023-05-21T17:39:37.673Z,98027.68
2023-05-21T17:42:44.701Z,98027.48
2023-05-21T17:45:51.767Z,98031.05
2023-05-21T18:01:11.857Z,98037.77
2023-05-21T18:13:54.770Z,98035.61
2023-05-21T18:17:07.225Z,98036.41
2023-05-21T19:44:14.829Z,98066.16
2023-05-21T19:47:23.138Z,98068.84
2023-05-21T19:54:01.652Z,98067.84
